createdAt,value
2019-04-25T00:02:29.293Z,7.33
2019-04-25T00:04:58.239Z,7.17
2019-04-25T00:07:27.123Z,6.50
2019-04-25T00:09:58.093Z,6.93
2019-04-25T00:12:28.214Z,6.17
2019-04-25T00:14:56.960Z,6.17
2019-04-25T00:17:27.265Z,7.03
2019-04-25T00:19:55.818Z,6.30
2019-04-25T00:22:39.273Z,6.43
2019-04-25T00:25:28.731Z,7.20
2019-04-25T00:28:01.700Z,7.00
2019-04-25T00:30:32.247Z,7.60
2019-04-25T00:33:02.027Z,7.70
2019-04-25T00:35:31.652Z,6.13
2019-04-25T00:38:00.317Z,6.93
2019-04-25T00:40:29.167Z,6.63
2019-04-25T00:43:01.619Z,6.87
2019-04-25T00:45:31.684Z,7.00
2019-04-25T00:48:03.942Z,6.80
2019-04-25T00:50:35.464Z,7.57
2019-04-25T00:53:01.717Z,7.17
2019-04-25T00:55:31.483Z,6.70
2019-04-25T00:58:03.642Z,7.47
2019-04-25T01:00:43.456Z,7.30
2019-04-25T01:03:22.805Z,7.00
2019-04-25T01:05:53.149Z,6.50
2019-04-25T01:08:23.279Z,7.60
2019-04-25T01:10:53.132Z,6.43
2019-04-25T01:13:22.306Z,7.67
2019-04-25T01:15:52.853Z,6.60
2019-04-25T01:18:23.176Z,6.47
2019-04-25T01:20:54.431Z,7.20
2019-04-25T01:23:26.261Z,6.83
2019-04-25T01:25:55.843Z,6.67
2019-04-25T01:28:24.766Z,7.37
2019-04-25T01:30:55.212Z,7.20
2019-04-25T01:33:26.153Z,6.77
2019-04-25T01:36:05.851Z,6.70
2019-04-25T01:38:39.002Z,7.30
2019-04-25T01:41:19.467Z,7.60
2019-04-25T01:43:53.247Z,7.20
2019-04-25T01:46:24.132Z,7.53
2019-04-25T01:48:54.504Z,7.30
2019-04-25T01:51:24.110Z,6.90
2019-04-25T01:53:54.861Z,6.93
2019-04-25T01:56:24.762Z,7.90
2019-04-25T01:58:54.735Z,7.03
2019-04-25T02:01:24.222Z,7.53
2019-04-25T02:03:54.310Z,6.83
2019-04-25T02:06:24.946Z,7.73
2019-04-25T02:08:55.224Z,7.40
2019-04-25T02:11:37.439Z,6.87
2019-04-25T02:14:07.383Z,7.10
2019-04-25T02:16:38.146Z,7.07
2019-04-25T02:19:07.180Z,6.70
2019-04-25T02:21:36.435Z,7.67
2019-04-25T02:24:05.934Z,7.67
2019-04-25T02:26:34.680Z,8.00
2019-04-25T02:29:07.910Z,7.73
2019-04-25T02:31:37.289Z,8.43
2019-04-25T02:34:08.401Z,7.40
2019-04-25T02:36:36.878Z,7.63
2019-04-25T02:39:09.102Z,7.20
2019-04-25T02:41:39.607Z,7.80
2019-04-25T02:44:10.352Z,8.10
2019-04-25T02:46:44.440Z,7.83
2019-04-25T02:49:29.925Z,8.17
2019-04-25T02:51:50.962Z,7.73
2019-04-25T02:54:20.057Z,8.07
2019-04-25T02:56:49.651Z,7.80
2019-04-25T02:59:18.964Z,8.07
2019-04-25T03:01:47.762Z,7.77
2019-04-25T03:04:16.551Z,8.27
2019-04-25T03:06:45.642Z,8.50
2019-04-25T03:09:15.371Z,7.13
2019-04-25T03:11:47.595Z,8.37
2019-04-25T03:14:15.852Z,7.87
2019-04-25T03:16:45.034Z,7.57
2019-04-25T03:19:18.122Z,7.80
2019-04-25T03:21:55.056Z,8.00
2019-04-25T03:24:25.058Z,7.57
2019-04-25T03:26:54.561Z,8.17
2019-04-25T03:29:24.801Z,8.50
2019-04-25T03:31:56.061Z,8.20
2019-04-25T03:34:25.347Z,8.40
2019-04-25T03:36:54.347Z,8.60
2019-04-25T03:39:26.950Z,7.93
2019-04-25T03:41:55.205Z,8.03
2019-04-25T03:44:25.367Z,8.70
2019-04-25T03:46:54.206Z,8.30
2019-04-25T03:49:23.874Z,8.53
2019-04-25T03:51:54.077Z,7.70
2019-04-25T03:54:29.947Z,8.47
2019-04-25T03:56:56.228Z,7.87
2019-04-25T03:59:24.944Z,7.87
2019-04-25T04:01:54.111Z,8.63
2019-04-25T04:04:23.702Z,8.60
2019-04-25T04:06:53.794Z,7.77
2019-04-25T04:09:24.064Z,8.27
2019-04-25T04:11:54.130Z,7.93
2019-04-25T04:14:24.079Z,8.60
2019-04-25T04:17:10.901Z,9.20
2019-04-25T04:19:41.539Z,9.00
2019-04-25T04:22:16.234Z,8.70
2019-04-25T04:24:46.005Z,9.20
2019-04-25T04:27:16.813Z,8.20
2019-04-25T04:29:45.645Z,8.60
2019-04-25T04:32:15.964Z,8.33
2019-04-25T04:34:45.510Z,9.77
2019-04-25T04:37:16.195Z,9.83
2019-04-25T04:39:45.075Z,9.07
2019-04-25T04:42:14.888Z,9.30
2019-04-25T04:44:44.116Z,9.33
2019-04-25T04:47:15.034Z,9.73
2019-04-25T04:49:45.448Z,9.73
2019-04-25T04:52:15.682Z,10.30
2019-04-25T04:54:45.722Z,9.47
2019-04-25T04:57:23.209Z,8.90
2019-04-25T04:59:45.015Z,9.40
2019-04-25T05:02:27.266Z,8.60
2019-04-25T05:05:00.448Z,8.63
2019-04-25T05:07:39.533Z,9.67
2019-04-25T05:10:10.583Z,8.47
2019-04-25T05:12:39.193Z,8.63
2019-04-25T05:15:12.598Z,8.50
2019-04-25T05:17:45.040Z,10.53
2019-04-25T05:20:15.990Z,7.80
2019-04-25T05:22:45.649Z,8.40
2019-04-25T05:25:16.332Z,7.93
2019-04-25T05:28:00.101Z,7.70
2019-04-25T05:30:26.463Z,8.50
2019-04-25T05:32:54.894Z,7.67
2019-04-25T05:35:25.935Z,7.27
2019-04-25T05:37:56.203Z,7.13
2019-04-25T05:43:15.090Z,36.57
2019-04-25T05:45:45.477Z,7.40
2019-04-25T05:48:15.346Z,7.87
2019-04-25T05:50:45.571Z,7.30
2019-04-25T05:53:16.287Z,7.27
2019-04-25T05:55:54.033Z,7.57
2019-04-25T05:58:34.146Z,8.33
2019-04-25T06:01:03.900Z,7.00
2019-04-25T06:03:38.888Z,7.80
2019-04-25T06:06:13.331Z,7.60
2019-04-25T06:08:45.042Z,10.30
2019-04-25T06:11:23.551Z,7.97
2019-04-25T06:14:00.308Z,7.00
2019-04-25T06:16:31.012Z,7.77
2019-04-25T06:19:14.224Z,8.00
2019-04-25T06:21:45.993Z,8.03
2019-04-25T06:24:28.706Z,7.53
2019-04-25T06:27:03.828Z,7.23
2019-04-25T06:29:34.702Z,7.83
2019-04-25T06:32:25.801Z,11.17
2019-04-25T06:34:55.437Z,7.30
2019-04-25T06:37:29.077Z,9.13
2019-04-25T06:40:07.481Z,34.83
2019-04-25T06:42:46.603Z,10.87
2019-04-25T06:45:37.148Z,9.60
2019-04-25T06:48:18.878Z,7.53
2019-04-25T06:51:07.389Z,8.57
2019-04-25T06:53:43.588Z,7.00
2019-04-25T06:56:27.682Z,7.23
2019-04-25T06:58:58.899Z,7.47
2019-04-25T07:01:34.637Z,8.23
2019-04-25T07:04:07.178Z,7.73
2019-04-25T07:06:45.607Z,7.50
2019-04-25T07:09:18.003Z,7.93
2019-04-25T07:11:53.998Z,6.97
2019-04-25T07:14:37.846Z,7.50
2019-04-25T07:19:51.623Z,8.37
2019-04-25T07:22:25.629Z,7.63
2019-04-25T07:24:57.241Z,7.03
2019-04-25T07:27:40.254Z,8.63
2019-04-25T07:30:45.401Z,7.70
2019-04-25T07:33:05.496Z,7.40
2019-04-25T07:35:35.736Z,8.60
2019-04-25T07:38:04.750Z,8.20
2019-04-25T07:40:34.755Z,7.57
2019-04-25T07:43:04.890Z,7.57
2019-04-25T07:45:36.262Z,7.77
2019-04-25T07:48:06.284Z,18.87
2019-04-25T07:50:41.175Z,7.63
2019-04-25T07:53:14.089Z,8.10
2019-04-25T07:55:44.513Z,6.73
2019-04-25T07:58:14.453Z,6.63
2019-04-25T08:00:44.806Z,6.73
2019-04-25T08:03:16.710Z,6.53
2019-04-25T08:05:47.281Z,7.17
2019-04-25T08:08:20.725Z,6.93
2019-04-25T08:11:06.207Z,6.70
2019-04-25T08:13:48.283Z,6.97
2019-04-25T08:16:19.948Z,6.87
2019-04-25T08:18:50.493Z,7.30
2019-04-25T08:21:21.738Z,7.13
2019-04-25T08:23:53.230Z,44.83
2019-04-25T08:26:24.202Z,6.20
2019-04-25T08:28:57.225Z,7.80
2019-04-25T08:31:26.555Z,7.30
2019-04-25T08:33:59.827Z,6.07
2019-04-25T08:36:31.276Z,6.67
2019-04-25T08:39:03.367Z,6.47
2019-04-25T08:41:37.018Z,7.23
2019-04-25T08:44:10.406Z,7.87
2019-04-25T08:46:48.519Z,6.70
2019-04-25T08:49:19.336Z,6.30
2019-04-25T08:51:50.384Z,6.17
2019-04-25T08:54:27.075Z,6.37
2019-04-25T08:56:58.605Z,6.37
2019-04-25T08:59:52.956Z,7.13
2019-04-25T09:02:31.614Z,6.50
2019-04-25T09:05:18.623Z,6.27
2019-04-25T09:07:51.423Z,9.53
2019-04-25T09:10:20.887Z,12.27
2019-04-25T09:12:53.598Z,8.17
2019-04-25T09:15:24.862Z,6.73
2019-04-25T09:17:59.197Z,6.33
2019-04-25T09:20:28.450Z,5.83
2019-04-25T09:22:57.883Z,6.43
2019-04-25T09:25:27.522Z,6.60
2019-04-25T09:27:56.680Z,5.70
2019-04-25T09:30:26.753Z,6.17
2019-04-25T09:32:58.568Z,7.60
2019-04-25T09:35:30.917Z,7.33
2019-04-25T09:38:01.477Z,5.73
2019-04-25T09:40:34.065Z,5.70
2019-04-25T09:43:03.658Z,5.63
2019-04-25T09:45:37.628Z,5.30
2019-04-25T09:48:10.634Z,5.23
2019-04-25T09:50:46.313Z,6.20
2019-04-25T09:53:25.881Z,5.67
2019-04-25T09:56:04.148Z,6.03
2019-04-25T09:58:40.075Z,5.43
2019-04-25T10:01:17.769Z,5.87
2019-04-25T10:03:48.766Z,5.77
2019-04-25T10:06:18.733Z,11.27
2019-04-25T10:08:50.579Z,5.73
2019-04-25T10:11:21.259Z,7.07
2019-04-25T10:13:59.797Z,5.40
2019-04-25T10:16:33.491Z,6.77
2019-04-25T10:19:05.605Z,6.70
2019-04-25T10:21:35.573Z,5.93
2019-04-25T10:24:07.009Z,6.43
2019-04-25T10:26:38.563Z,7.10
2019-04-25T10:29:10.107Z,6.17
2019-04-25T10:31:45.190Z,5.87
2019-04-25T10:34:16.075Z,5.37
2019-04-25T10:36:46.937Z,6.20
2019-04-25T10:39:16.126Z,5.80
2019-04-25T10:41:49.586Z,7.23
2019-04-25T10:44:19.958Z,9.30
2019-04-25T10:46:50.667Z,5.93
2019-04-25T10:49:20.967Z,6.30
2019-04-25T10:51:49.937Z,6.33
2019-04-25T10:54:19.685Z,6.77
2019-04-25T10:56:48.855Z,5.23
2019-04-25T10:59:23.543Z,5.60
2019-04-25T11:01:53.865Z,7.03
2019-04-25T11:04:33.531Z,5.87
2019-04-25T11:07:03.794Z,5.40
2019-04-25T11:09:34.307Z,6.07
2019-04-25T11:12:07.062Z,5.37
2019-04-25T11:14:36.263Z,6.33
2019-04-25T11:17:07.230Z,6.17
2019-04-25T11:19:38.887Z,5.50
2019-04-25T11:22:08.625Z,5.00
2019-04-25T11:24:38.642Z,5.07
2019-04-25T11:27:10.853Z,5.70
2019-04-25T11:29:41.619Z,5.63
2019-04-25T11:32:13.581Z,7.00
2019-04-25T11:34:46.063Z,6.90
2019-04-25T11:37:15.676Z,5.67
2019-04-25T11:39:47.289Z,6.17
2019-04-25T11:42:20.750Z,6.30
2019-04-25T11:44:49.854Z,6.43
2019-04-25T11:47:20.312Z,6.83
2019-04-25T11:49:49.992Z,6.70
2019-04-25T11:52:27.362Z,6.10
2019-04-25T11:54:54.489Z,7.30
2019-04-25T11:57:26.140Z,6.17
2019-04-25T12:00:00.741Z,5.73
2019-04-25T12:02:34.431Z,6.67
2019-04-25T12:05:07.561Z,5.80
2019-04-25T12:07:38.108Z,7.17
2019-04-25T12:10:08.476Z,6.13
2019-04-25T12:12:37.334Z,6.27
2019-04-25T12:15:07.829Z,6.00
2019-04-25T12:17:37.093Z,6.23
2019-04-25T12:20:06.185Z,5.90
2019-04-25T12:22:37.919Z,6.10
2019-04-25T12:25:07.680Z,6.00
2019-04-25T12:27:45.476Z,6.47
2019-04-25T12:30:14.061Z,6.23
2019-04-25T12:32:44.172Z,6.13
2019-04-25T12:35:14.754Z,7.17
2019-04-25T12:37:44.669Z,7.50
2019-04-25T12:40:16.021Z,7.87
2019-04-25T12:42:47.832Z,7.20
2019-04-25T12:45:27.365Z,6.60
2019-04-25T12:47:59.354Z,6.77
2019-04-25T12:50:30.587Z,6.53
2019-04-25T12:53:04.960Z,7.53
2019-04-25T12:55:34.181Z,6.90
2019-04-25T12:58:08.352Z,6.63
2019-04-25T13:00:51.144Z,7.33
2019-04-25T13:06:15.867Z,7.37
2019-04-25T13:08:51.135Z,7.67
2019-04-25T13:11:24.301Z,8.23
2019-04-25T13:13:55.290Z,7.47
2019-04-25T13:16:32.120Z,6.73
2019-04-25T13:19:24.132Z,6.33
2019-04-25T13:21:45.894Z,6.87
2019-04-25T13:24:25.710Z,7.60
2019-04-25T13:27:06.036Z,7.23
2019-04-25T13:29:36.587Z,6.80
2019-04-25T13:32:24.087Z,6.93
2019-04-25T13:35:09.895Z,7.17
2019-04-25T13:37:46.864Z,7.27
2019-04-25T13:40:17.168Z,7.13
2019-04-25T13:42:58.251Z,6.00
2019-04-25T13:45:33.366Z,7.87
2019-04-25T13:48:18.588Z,8.50
2019-04-25T13:50:51.424Z,7.23
2019-04-25T13:53:29.986Z,6.53
2019-04-25T13:55:58.730Z,7.60
2019-04-25T13:58:40.232Z,6.43
2019-04-25T14:01:13.224Z,9.17
2019-04-25T14:03:44.381Z,10.80
2019-04-25T14:06:13.609Z,6.33
2019-04-25T14:08:43.521Z,6.77
2019-04-25T14:11:14.663Z,7.73
2019-04-25T14:13:46.017Z,6.87
2019-04-25T14:16:22.559Z,7.87
2019-04-25T14:19:05.443Z,6.07
2019-04-25T14:21:48.747Z,7.17
2019-04-25T14:24:30.762Z,6.47
2019-04-25T14:27:00.039Z,6.40
2019-04-25T14:29:34.810Z,6.77
2019-04-25T14:32:05.455Z,6.67
2019-04-25T14:34:36.596Z,7.13
2019-04-25T14:37:05.493Z,6.50
2019-04-25T14:39:34.327Z,7.47
2019-04-25T14:42:05.887Z,7.53
2019-04-25T14:44:37.395Z,6.90
2019-04-25T14:47:08.075Z,6.93
2019-04-25T14:49:38.059Z,7.10
2019-04-25T14:52:06.806Z,6.53
2019-04-25T14:54:56.963Z,7.07
2019-04-25T14:57:32.125Z,7.53
2019-04-25T15:00:04.628Z,6.60
2019-04-25T15:02:32.754Z,6.60
2019-04-25T15:05:02.505Z,7.63
2019-04-25T15:07:34.172Z,7.17
2019-04-25T15:10:02.657Z,6.60
2019-04-25T15:12:34.269Z,6.17
2019-04-25T15:15:03.668Z,6.10
2019-04-25T15:17:43.915Z,5.93
2019-04-25T15:20:06.817Z,6.20
2019-04-25T15:22:37.797Z,7.13
2019-04-25T15:25:10.037Z,7.77
2019-04-25T15:27:38.927Z,6.20
2019-04-25T15:30:12.190Z,6.60
2019-04-25T15:32:41.745Z,6.93
2019-04-25T15:35:13.535Z,5.80
2019-04-25T15:37:57.118Z,6.53
2019-04-25T15:40:28.931Z,5.70
2019-04-25T15:43:07.287Z,6.20
2019-04-25T15:45:50.187Z,5.83
2019-04-25T15:48:19.891Z,5.37
2019-04-25T15:50:50.662Z,6.77
2019-04-25T15:53:21.734Z,5.90
2019-04-25T15:55:52.160Z,6.07
2019-04-25T15:58:20.966Z,5.80
2019-04-25T16:01:01.294Z,5.80
2019-04-25T16:03:33.669Z,6.80
2019-04-25T16:06:03.194Z,6.93
2019-04-25T16:08:36.296Z,5.80
2019-04-25T16:11:06.729Z,6.60
2019-04-25T16:13:35.541Z,6.00
2019-04-25T16:16:11.263Z,6.50
2019-04-25T16:18:39.999Z,5.77
2019-04-25T16:21:14.972Z,6.67
2019-04-25T16:23:44.743Z,6.33
2019-04-25T16:26:14.627Z,7.10
2019-04-25T16:28:43.440Z,6.60
2019-04-25T16:31:18.712Z,6.80
2019-04-25T16:33:50.385Z,6.70
2019-04-25T16:36:20.630Z,6.23
2019-04-25T16:38:54.708Z,7.53
2019-04-25T16:41:24.999Z,7.20
2019-04-25T16:43:59.610Z,6.73
2019-04-25T16:46:30.354Z,6.73
2019-04-25T16:49:01.316Z,6.37
2019-04-25T16:51:33.168Z,6.43
2019-04-25T16:54:01.775Z,6.70
2019-04-25T16:56:34.549Z,6.90
2019-04-25T16:59:03.404Z,6.73
2019-04-25T17:01:36.069Z,6.77
2019-04-25T17:04:06.039Z,6.70
2019-04-25T17:06:35.886Z,7.63
2019-04-25T17:09:07.672Z,6.27
2019-04-25T17:11:39.309Z,6.53
2019-04-25T17:14:17.801Z,6.27
2019-04-25T17:17:03.389Z,7.60
2019-04-25T17:19:40.886Z,7.03
2019-04-25T17:22:09.513Z,7.10
2019-04-25T17:24:43.840Z,6.67
2019-04-25T17:27:12.700Z,6.47
2019-04-25T17:29:43.118Z,7.20
2019-04-25T17:32:22.271Z,6.03
2019-04-25T17:35:09.760Z,6.90
2019-04-25T17:37:40.788Z,7.33
2019-04-25T17:40:12.489Z,7.40
2019-04-25T17:42:43.997Z,6.70
2019-04-25T17:45:17.077Z,6.33
2019-04-25T17:47:54.548Z,7.27
2019-04-25T17:50:22.081Z,6.70
2019-04-25T17:52:53.254Z,6.80
2019-04-25T17:55:24.983Z,6.93
2019-04-25T17:57:56.376Z,7.23
2019-04-25T18:00:31.672Z,6.90
2019-04-25T18:03:01.646Z,7.37
2019-04-25T18:05:31.909Z,7.53
2019-04-25T18:08:07.490Z,7.43
2019-04-25T18:10:41.918Z,7.27
2019-04-25T18:13:15.524Z,8.67
2019-04-25T18:16:07.966Z,8.63
2019-04-25T18:18:47.315Z,8.90
2019-04-25T18:21:16.157Z,8.57
2019-04-25T18:23:56.099Z,8.57
2019-04-25T18:26:35.322Z,9.30
2019-04-25T18:29:15.665Z,8.60
2019-04-25T18:31:44.276Z,8.17
2019-04-25T18:34:33.660Z,9.23
2019-04-25T18:37:06.015Z,9.43
2019-04-25T18:39:37.816Z,9.40
2019-04-25T18:42:17.679Z,9.50
2019-04-25T18:44:47.621Z,8.70
2019-04-25T18:47:16.877Z,9.47
2019-04-25T18:49:47.051Z,10.17
2019-04-25T18:52:33.869Z,9.07
2019-04-25T18:55:07.579Z,9.40
2019-04-25T18:57:39.014Z,9.50
2019-04-25T19:00:21.542Z,10.70
2019-04-25T19:03:05.063Z,9.90
2019-04-25T19:05:36.467Z,11.00
2019-04-25T19:08:13.284Z,11.23
2019-04-25T19:10:43.784Z,11.63
2019-04-25T19:13:15.135Z,10.87
2019-04-25T19:15:47.202Z,10.20
2019-04-25T19:18:20.203Z,10.60
2019-04-25T19:20:54.865Z,11.27
2019-04-25T19:23:25.411Z,9.77
2019-04-25T19:25:59.095Z,9.77
2019-04-25T19:28:27.909Z,10.33
2019-04-25T19:30:58.685Z,10.97
2019-04-25T19:33:35.633Z,10.70
2019-04-25T19:35:59.815Z,11.33
2019-04-25T19:38:40.660Z,11.73
2019-04-25T19:41:15.217Z,11.10
2019-04-25T19:43:59.969Z,11.33
2019-04-25T19:46:41.507Z,11.40
2019-04-25T19:49:20.962Z,10.70
2019-04-25T19:51:57.838Z,13.90
2019-04-25T19:54:30.724Z,13.90
2019-04-25T19:57:00.166Z,12.20
2019-04-25T19:59:32.790Z,13.63
2019-04-25T20:02:06.735Z,14.07
2019-04-25T20:04:45.506Z,13.00
2019-04-25T20:07:24.567Z,13.57
2019-04-25T20:10:11.461Z,13.97
2019-04-25T20:12:44.056Z,11.70
2019-04-25T20:15:14.292Z,13.47
2019-04-25T20:17:47.714Z,13.30
2019-04-25T20:20:18.513Z,13.50
2019-04-25T20:22:52.350Z,13.43
2019-04-25T20:25:23.058Z,14.00
2019-04-25T20:27:53.036Z,14.47
2019-04-25T20:30:24.191Z,14.40
2019-04-25T20:32:55.893Z,15.87
2019-04-25T20:35:31.474Z,15.57
2019-04-25T20:38:05.461Z,16.17
2019-04-25T20:40:35.695Z,14.20
2019-04-25T20:43:12.049Z,14.77
2019-04-25T20:45:38.461Z,13.83
2019-04-25T20:48:07.302Z,13.10
2019-04-25T20:50:39.262Z,13.80
2019-04-25T20:53:11.008Z,14.13
2019-04-25T20:55:42.811Z,13.80
2019-04-25T20:58:14.183Z,13.73
2019-04-25T21:00:48.319Z,13.50
2019-04-25T21:03:20.114Z,14.80
2019-04-25T21:05:51.845Z,15.33
2019-04-25T21:08:24.397Z,15.00
2019-04-25T21:10:54.014Z,15.90
2019-04-25T21:13:31.137Z,14.43
2019-04-25T21:16:11.851Z,15.57
2019-04-25T21:18:49.503Z,13.23
2019-04-25T21:21:20.692Z,14.20
2019-04-25T21:23:54.920Z,15.27
2019-04-25T21:26:25.819Z,15.80
2019-04-25T21:28:57.005Z,15.53
2019-04-25T21:31:27.512Z,13.80
2019-04-25T21:34:02.770Z,14.70
2019-04-25T21:36:32.476Z,15.97
2019-04-25T21:39:01.914Z,16.90
2019-04-25T21:41:43.059Z,16.60
2019-04-25T21:44:14.161Z,17.27
2019-04-25T21:46:42.837Z,17.37
2019-04-25T21:49:17.416Z,16.40
2019-04-25T21:51:49.873Z,14.90
2019-04-25T21:54:22.127Z,18.23
2019-04-25T21:56:59.533Z,16.53
2019-04-25T21:59:31.515Z,16.47
2019-04-25T22:02:02.561Z,17.87
2019-04-25T22:04:38.930Z,18.77
2019-04-25T22:07:03.017Z,16.93
2019-04-25T22:09:33.106Z,17.70
2019-04-25T22:12:05.790Z,17.40
2019-04-25T22:14:36.021Z,16.67
2019-04-25T22:17:08.329Z,17.90
2019-04-25T22:19:37.441Z,17.73
2019-04-25T22:24:56.174Z,17.80
2019-04-25T22:27:28.368Z,16.67
2019-04-25T22:30:10.362Z,17.77
2019-04-25T22:32:59.556Z,17.80
2019-04-25T22:38:19.497Z,17.83
2019-04-25T22:41:00.158Z,17.03
2019-04-25T22:43:29.728Z,16.73
2019-04-25T22:46:05.986Z,17.77
2019-04-25T22:48:54.076Z,16.10
2019-04-25T22:51:34.221Z,16.50
2019-04-25T22:54:05.340Z,16.90
2019-04-25T22:56:38.670Z,16.60
2019-04-25T22:59:09.107Z,16.73
2019-04-25T23:01:49.136Z,18.13
2019-04-25T23:04:26.676Z,17.00
2019-04-25T23:06:55.409Z,16.87
2019-04-25T23:09:24.515Z,17.20
2019-04-25T23:11:54.864Z,16.73
2019-04-25T23:14:25.600Z,16.97
2019-04-25T23:16:56.019Z,17.20
2019-04-25T23:19:26.269Z,16.40
2019-04-25T23:22:28.178Z,17.10
2019-04-25T23:24:31.261Z,17.50
2019-04-25T23:27:19.556Z,15.80
2019-04-25T23:29:48.227Z,16.83
2019-04-25T23:32:18.569Z,16.33
2019-04-25T23:34:47.306Z,16.70
2019-04-25T23:37:18.526Z,16.40
2019-04-25T23:39:49.224Z,16.10
2019-04-25T23:42:19.819Z,17.70
2019-04-25T23:44:50.360Z,16.63
2019-04-25T23:47:19.072Z,16.50
2019-04-25T23:52:37.992Z,17.70
2019-04-25T23:55:08.353Z,16.57
2019-04-25T23:57:40.044Z,17.07
